Time;durP1;ratioP1;P1;durP2;ratioP2;P2;SDS_P1;SDS_P2;PMS_P1;PMS_P2;Temp;Humidity;BMP_temperature;BMP_pressure;BME280_temperature;BME280_humidity;BME280_pressure;Samples;Min_cycle;Max_cycle;Signal;HPM_P1;HPM_P2
2023/12/09 00:00:44;;;;;;;15.00;13.57;;;7.10;99.90;;;;;;5024159;28;20208;-64
2023/12/09 00:03:11;;;;;;;16.30;13.77;;;7.10;99.90;;;;;;5029472;28;20665;-64
2023/12/09 00:05:38;;;;;;;15.43;14.03;;;7.10;99.90;;;;;;5033942;28;20304;-64
2023/12/09 00:08:05;;;;;;;15.97;14.37;;;7.10;99.90;;;;;;5026808;28;20684;-65
2023/12/09 00:10:32;;;;;;;16.27;14.60;;;7.10;99.90;;;;;;5023616;28;20196;-63
2023/12/09 00:12:59;;;;;;;15.63;14.10;;;7.20;99.90;;;;;;5023845;28;20228;-63
2023/12/09 00:15:26;;;;;;;16.23;14.67;;;7.10;99.90;;;;;;5017523;28;20212;-64
2023/12/09 00:17:53;;;;;;;15.93;14.33;;;7.20;99.90;;;;;;5029618;28;20327;-63
2023/12/09 00:20:20;;;;;;;16.27;14.67;;;7.10;99.90;;;;;;5027481;28;20231;-63
2023/12/09 00:22:47;;;;;;;19.93;15.60;;;7.10;99.90;;;;;;5027034;28;20318;-63
2023/12/09 00:25:14;;;;;;;17.00;15.23;;;7.10;99.90;;;;;;5025513;28;20200;-64
2023/12/09 00:27:41;;;;;;;17.13;15.43;;;7.10;99.90;;;;;;5032003;28;20196;-63
2023/12/09 00:30:08;;;;;;;17.50;14.43;;;7.10;99.90;;;;;;5027371;28;20215;-63
2023/12/09 00:32:35;;;;;;;15.00;13.57;;;7.10;99.90;;;;;;5026061;28;20211;-64
2023/12/09 00:35:02;;;;;;;17.10;15.43;;;7.10;99.90;;;;;;5017240;28;20579;-65
2023/12/09 00:37:29;;;;;;;17.47;15.70;;;7.10;99.90;;;;;;5023373;28;20349;-64
2023/12/09 00:39:56;;;;;;;15.77;14.33;;;7.10;99.90;;;;;;5034703;28;20180;-64
2023/12/09 00:42:24;;;;;;;17.50;15.80;;;7.10;99.90;;;;;;5040925;28;20241;-65
2023/12/09 00:44:51;;;;;;;15.53;14.07;;;7.10;99.90;;;;;;5034569;28;20276;-66
2023/12/09 00:47:18;;;;;;;15.33;13.73;;;7.10;99.90;;;;;;5028962;28;20269;-65
2023/12/09 00:49:45;;;;;;;15.63;14.17;;;7.10;99.90;;;;;;5022368;28;20549;-64
2023/12/09 00:52:12;;;;;;;16.97;14.07;;;7.10;99.90;;;;;;5028976;28;20219;-65
2023/12/09 00:54:39;;;;;;;15.80;14.43;;;7.10;99.90;;;;;;5031179;28;20200;-65
2023/12/09 00:57:06;;;;;;;16.13;13.83;;;7.00;99.90;;;;;;5036224;28;20242;-65
2023/12/09 00:59:34;;;;;;;14.17;12.77;;;6.90;99.90;;;;;;5021272;28;20193;-65
2023/12/09 01:02:01;;;;;;;14.40;12.93;;;6.90;99.90;;;;;;5039513;28;20262;-65
2023/12/09 01:04:28;;;;;;;15.57;14.03;;;6.90;99.90;;;;;;5034726;28;20192;-65
2023/12/09 01:06:56;;;;;;;14.47;13.30;;;6.90;99.90;;;;;;5029897;28;20288;-66
2023/12/09 01:09:23;;;;;;;14.00;12.90;;;7.00;99.90;;;;;;5031363;28;20297;-65
2023/12/09 01:11:50;;;;;;;15.00;13.60;;;7.10;99.90;;;;;;5037016;28;20318;-65
2023/12/09 01:14:20;;;;;;;13.93;13.03;;;7.10;99.90;;;;;;5036128;28;20216;-65
2023/12/09 01:16:47;;;;;;;15.03;12.97;;;7.20;99.90;;;;;;5026174;28;20192;-65
2023/12/09 01:19:14;;;;;;;13.93;12.60;;;7.20;99.90;;;;;;5031204;28;20286;-68
2023/12/09 01:21:42;;;;;;;14.57;13.13;;;7.20;99.90;;;;;;5036014;28;20220;-66
2023/12/09 01:24:09;;;;;;;13.70;12.67;;;7.20;99.90;;;;;;5028570;28;20203;-68
2023/12/09 01:26:36;;;;;;;13.87;12.57;;;7.20;99.90;;;;;;5028632;28;20216;-68
2023/12/09 01:29:03;;;;;;;13.23;12.20;;;7.20;99.90;;;;;;5041994;28;20617;-68
2023/12/09 01:31:30;;;;;;;13.13;12.03;;;7.30;99.90;;;;;;5042786;28;20258;-67
2023/12/09 01:33:58;;;;;;;13.53;12.50;;;7.30;99.90;;;;;;5029729;28;20246;-67
2023/12/09 01:36:25;;;;;;;13.60;12.30;;;7.30;99.90;;;;;;5035943;28;20613;-68
2023/12/09 01:38:52;;;;;;;13.10;12.00;;;7.30;99.90;;;;;;5031816;28;20287;-68
2023/12/09 01:41:19;;;;;;;13.40;11.73;;;7.30;99.90;;;;;;5035780;28;20236;-69
2023/12/09 01:43:48;;;;;;;13.80;12.53;;;7.30;99.90;;;;;;5029687;28;20204;-69
2023/12/09 01:46:17;;;;;;;13.00;11.77;;;7.30;99.90;;;;;;5024396;28;20274;-69
2023/12/09 01:48:44;;;;;;;13.87;12.60;;;7.30;99.90;;;;;;5036239;28;20196;-69
2023/12/09 01:51:14;;;;;;;12.70;11.80;;;7.30;99.90;;;;;;5038785;28;20227;-67
2023/12/09 01:53:42;;;;;;;12.47;11.47;;;7.30;99.90;;;;;;5036091;28;20258;-69
2023/12/09 01:56:11;;;;;;;12.53;11.63;;;7.40;99.90;;;;;;5036607;28;20212;-68
2023/12/09 01:58:38;;;;;;;13.20;12.17;;;7.30;99.90;;;;;;5035335;28;20219;-69
2023/12/09 02:01:06;;;;;;;13.37;12.00;;;7.40;99.90;;;;;;5038147;28;20192;-69
2023/12/09 02:03:34;;;;;;;17.63;11.87;;;7.40;99.90;;;;;;5039350;28;20195;-69
2023/12/09 02:06:01;;;;;;;14.60;12.23;;;7.40;99.90;;;;;;5044709;28;20647;-69
2023/12/09 02:08:28;;;;;;;14.23;11.93;;;7.40;99.90;;;;;;5038458;28;20196;-69
2023/12/09 02:11:17;;;;;;;12.40;11.30;;;7.40;99.90;;;;;;5028482;28;20196;-69
2023/12/09 02:14:07;;;;;;;12.23;11.20;;;7.40;99.90;;;;;;5012469;28;20204;-69
2023/12/09 02:16:46;;;;;;;11.30;10.50;;;7.30;99.90;;;;;;5026057;28;20193;-69
2023/12/09 02:19:14;;;;;;;13.73;11.07;;;7.30;99.90;;;;;;5034961;28;20195;-69
2023/12/09 02:21:58;;;;;;;12.97;11.63;;;7.30;99.90;;;;;;5016459;28;20201;-69
2023/12/09 02:24:26;;;;;;;12.57;10.80;;;7.30;99.90;;;;;;5029843;28;20250;-69
2023/12/09 02:26:56;;;;;;;11.87;10.97;;;7.30;99.90;;;;;;5023489;28;20191;-69
2023/12/09 02:29:25;;;;;;;13.03;11.93;;;7.20;99.90;;;;;;5015341;28;20308;-69
2023/12/09 02:32:01;;;;;;;13.23;11.77;;;7.20;99.90;;;;;;5037645;28;20552;-69
2023/12/09 02:34:30;;;;;;;14.87;11.60;;;7.20;99.90;;;;;;5029152;28;20192;-69
2023/12/09 02:36:58;;;;;;;19.43;12.40;;;7.20;99.90;;;;;;5031586;28;20188;-69
2023/12/09 02:39:25;;;;;;;13.27;11.90;;;7.20;99.90;;;;;;5018209;28;20244;-69
2023/12/09 02:41:54;;;;;;;17.57;11.77;;;7.20;99.90;;;;;;5036226;28;20190;-69
2023/12/09 02:44:21;;;;;;;15.03;11.67;;;7.20;99.90;;;;;;5035341;28;20298;-69
2023/12/09 02:46:56;;;;;;;13.13;12.00;;;7.30;99.90;;;;;;5020652;28;20247;-66
2023/12/09 02:49:23;;;;;;;13.17;12.00;;;7.30;99.90;;;;;;5030994;28;20258;-66
2023/12/09 02:51:51;;;;;;;11.87;10.80;;;7.30;99.90;;;;;;5029937;28;20277;-66
2023/12/09 02:54:18;;;;;;;11.70;10.90;;;7.30;99.90;;;;;;5034873;28;20656;-66
2023/12/09 02:56:45;;;;;;;12.70;11.50;;;7.20;99.90;;;;;;5027202;28;20224;-66
2023/12/09 02:59:12;;;;;;;11.73;10.73;;;7.10;99.90;;;;;;5032067;28;20221;-66
2023/12/09 03:05:39;;;;;;;16.43;10.63;;;6.90;99.90;;;;;;5028323;28;20311;-65
2023/12/09 03:08:06;;;;;;;11.73;10.70;;;7.00;99.90;;;;;;5033516;28;20253;-65
2023/12/09 03:10:33;;;;;;;11.10;10.27;;;6.90;99.90;;;;;;5029323;28;20588;-66
2023/12/09 03:13:00;;;;;;;11.90;10.80;;;6.70;99.90;;;;;;5037888;28;20282;-67
2023/12/09 03:15:27;;;;;;;12.17;11.07;;;6.60;99.90;;;;;;5029579;28;20208;-67
2023/12/09 03:17:54;;;;;;;11.00;10.10;;;6.70;99.90;;;;;;5036947;28;20930;-66
2023/12/09 03:20:22;;;;;;;10.60;9.73;;;6.80;99.90;;;;;;5031899;28;20188;-66
2023/12/09 03:22:48;;;;;;;13.50;10.33;;;6.80;99.90;;;;;;5033817;28;20196;-66
2023/12/09 03:25:15;;;;;;;11.17;10.20;;;6.80;99.90;;;;;;5029842;28;20565;-68
2023/12/09 03:27:42;;;;;;;11.27;10.23;;;6.90;99.90;;;;;;5042834;28;20252;-67
2023/12/09 03:30:10;;;;;;;11.50;10.33;;;6.90;99.90;;;;;;5019203;28;20204;-68
2023/12/09 03:32:39;;;;;;;11.70;10.63;;;6.90;99.90;;;;;;5034539;28;20661;-68
2023/12/09 03:35:07;;;;;;;11.80;10.60;;;7.00;99.90;;;;;;5030927;28;20212;-68
2023/12/09 03:37:34;;;;;;;12.30;11.30;;;7.00;99.90;;;;;;5029131;28;20193;-67
2023/12/09 03:40:03;;;;;;;10.80;10.10;;;7.00;99.90;;;;;;5033163;28;20191;-68
2023/12/09 03:42:30;;;;;;;12.03;10.93;;;7.00;99.90;;;;;;5038228;28;20228;-66
2023/12/09 03:44:57;;;;;;;11.93;10.83;;;7.10;99.90;;;;;;5017717;28;20292;-66
2023/12/09 03:47:24;;;;;;;11.53;10.53;;;7.10;99.90;;;;;;5031569;28;20200;-66
2023/12/09 03:49:55;;;;;;;11.07;10.07;;;7.10;99.90;;;;;;5035018;28;20295;-68
2023/12/09 03:52:23;;;;;;;11.37;10.50;;;7.10;99.90;;;;;;5039549;28;20662;-67
2023/12/09 03:54:50;;;;;;;14.53;10.57;;;7.10;99.90;;;;;;5043221;28;20200;-68
2023/12/09 03:57:18;;;;;;;13.23;11.20;;;7.10;99.90;;;;;;5029959;28;20212;-68
2023/12/09 03:59:45;;;;;;;11.37;10.57;;;7.00;99.90;;;;;;5040665;28;20192;-68
2023/12/09 04:02:12;;;;;;;11.50;10.23;;;6.90;99.90;;;;;;5029939;28;20195;-68
2023/12/09 04:04:42;;;;;;;13.07;10.63;;;6.90;99.90;;;;;;5035984;28;20188;-69
2023/12/09 04:07:12;;;;;;;14.40;10.20;;;6.80;99.90;;;;;;5029542;28;20201;-69
2023/12/09 04:09:39;;;;;;;13.10;10.33;;;6.80;99.90;;;;;;5021178;28;20189;-69
2023/12/09 04:12:06;;;;;;;14.27;10.70;;;6.70;99.90;;;;;;5042518;28;20289;-69
2023/12/09 04:14:33;;;;;;;11.40;10.10;;;6.60;99.90;;;;;;5039368;28;20188;-68
2023/12/09 04:17:00;;;;;;;10.87;10.07;;;6.50;99.90;;;;;;5038232;28;20211;-69
2023/12/09 04:19:26;;;;;;;11.73;10.73;;;6.50;99.90;;;;;;5036679;28;20192;-68
2023/12/09 04:21:54;;;;;;;12.17;10.20;;;6.50;99.90;;;;;;5035906;28;20203;-68
2023/12/09 04:24:21;;;;;;;11.60;10.37;;;6.50;99.90;;;;;;5035497;28;20263;-68
2023/12/09 04:26:48;;;;;;;11.77;10.67;;;6.50;99.90;;;;;;5034124;28;20219;-68
2023/12/09 04:29:15;;;;;;;11.37;10.23;;;6.40;99.90;;;;;;5036142;28;20530;-68
2023/12/09 04:31:42;;;;;;;10.73;10.03;;;6.40;99.90;;;;;;5016034;28;20208;-69
2023/12/09 04:34:10;;;;;;;10.83;9.77;;;6.30;99.90;;;;;;5036044;28;20200;-68
2023/12/09 04:36:37;;;;;;;15.00;10.50;;;6.40;99.90;;;;;;5040816;28;20634;-69
2023/12/09 04:39:05;;;;;;;11.47;10.37;;;6.30;99.90;;;;;;5037497;28;20294;-68
2023/12/09 04:41:32;;;;;;;10.67;9.97;;;6.30;99.90;;;;;;5028442;28;20193;-68
2023/12/09 04:43:59;;;;;;;10.83;9.87;;;6.30;99.90;;;;;;5026255;28;20206;-68
2023/12/09 04:46:28;;;;;;;11.47;10.37;;;6.10;99.90;;;;;;5023584;28;20203;-67
2023/12/09 04:48:56;;;;;;;12.27;10.43;;;6.20;99.90;;;;;;5030527;28;20204;-67
2023/12/09 04:51:23;;;;;;;11.27;10.30;;;6.20;99.90;;;;;;5028169;28;20694;-65
2023/12/09 04:53:50;;;;;;;11.03;10.10;;;6.10;99.90;;;;;;5030425;28;20643;-66
2023/12/09 04:56:18;;;;;;;11.07;10.00;;;6.10;99.90;;;;;;5026960;28;20289;-66
2023/12/09 04:58:45;;;;;;;10.33;9.63;;;6.10;99.90;;;;;;5038355;28;20203;-67
2023/12/09 05:01:12;;;;;;;14.40;10.27;;;6.10;99.90;;;;;;5036053;28;20207;-67
2023/12/09 05:03:39;;;;;;;10.93;10.13;;;6.10;99.90;;;;;;5020894;28;20291;-67
2023/12/09 05:06:08;;;;;;;10.90;9.90;;;6.00;99.90;;;;;;5021967;28;20580;-67
2023/12/09 05:08:35;;;;;;;11.07;9.87;;;6.00;99.90;;;;;;5029644;28;20204;-64
2023/12/09 05:11:02;;;;;;;11.37;10.47;;;6.00;99.90;;;;;;5024537;28;20199;-63
2023/12/09 05:13:29;;;;;;;11.30;10.17;;;6.00;99.90;;;;;;5026140;28;20304;-63
2023/12/09 05:15:56;;;;;;;11.80;9.83;;;6.10;99.90;;;;;;5028220;28;20762;-64
2023/12/09 05:18:23;;;;;;;10.70;9.93;;;5.90;99.90;;;;;;5027229;28;20258;-66
2023/12/09 05:20:50;;;;;;;9.70;9.20;;;5.90;99.90;;;;;;5033844;28;20192;-68
2023/12/09 05:23:17;;;;;;;11.63;9.53;;;5.90;99.90;;;;;;5026603;28;20197;-67
2023/12/09 05:25:44;;;;;;;10.73;9.70;;;5.80;99.90;;;;;;5026395;28;20245;-66
2023/12/09 05:28:11;;;;;;;10.37;9.53;;;5.80;99.90;;;;;;5019039;28;20211;-66
2023/12/09 05:30:40;;;;;;;9.63;8.83;;;5.70;99.90;;;;;;5025559;28;20885;-67
2023/12/09 05:33:07;;;;;;;10.13;9.27;;;5.60;99.90;;;;;;5030251;28;20231;-66
2023/12/09 05:35:35;;;;;;;11.80;9.13;;;5.50;99.90;;;;;;5027915;28;20192;-66
2023/12/09 05:38:02;;;;;;;12.43;9.20;;;5.50;99.90;;;;;;5023299;28;20196;-66
2023/12/09 05:40:29;;;;;;;9.70;8.67;;;5.50;99.90;;;;;;5021345;28;20239;-66
2023/12/09 05:43:00;;;;;;;9.03;8.47;;;5.50;99.90;;;;;;5027924;28;20188;-66
2023/12/09 05:45:27;;;;;;;12.00;9.00;;;5.50;99.90;;;;;;5006154;28;20241;-66
2023/12/09 05:47:56;;;;;;;10.60;9.60;;;5.50;99.90;;;;;;5033836;28;20200;-68
2023/12/09 05:50:23;;;;;;;9.70;9.00;;;5.50;99.90;;;;;;5029988;28;20658;-68
2023/12/09 05:52:50;;;;;;;11.73;8.90;;;5.50;99.90;;;;;;5026224;28;20264;-68
2023/12/09 05:55:17;;;;;;;9.80;9.10;;;5.60;99.90;;;;;;5027237;28;20293;-68
2023/12/09 05:57:44;;;;;;;9.73;8.80;;;5.40;99.90;;;;;;5027835;28;20376;-68
2023/12/09 06:00:12;;;;;;;13.47;8.83;;;5.30;99.90;;;;;;5022158;28;20924;-68
2023/12/09 06:02:41;;;;;;;10.20;9.20;;;5.30;99.90;;;;;;5025387;28;20291;-68
2023/12/09 06:05:08;;;;;;;9.30;8.60;;;5.20;99.90;;;;;;5038259;28;20251;-68
2023/12/09 06:07:35;;;;;;;11.13;9.40;;;5.30;99.90;;;;;;5035762;28;20274;-68
2023/12/09 06:10:05;;;;;;;9.00;8.50;;;5.20;99.90;;;;;;5028724;28;20668;-69
2023/12/09 06:12:32;;;;;;;15.07;9.50;;;5.10;99.90;;;;;;5027386;28;20635;-68
2023/12/09 06:14:59;;;;;;;12.90;10.20;;;5.10;99.90;;;;;;5029124;28;20227;-69
2023/12/09 06:17:26;;;;;;;9.37;8.63;;;4.90;99.90;;;;;;5034086;28;20203;-71
2023/12/09 06:19:53;;;;;;;10.00;9.00;;;4.90;99.90;;;;;;5018175;28;20338;-69
2023/12/09 06:22:20;;;;;;;9.30;8.30;;;4.90;99.90;;;;;;5030682;28;20192;-69
2023/12/09 06:24:47;;;;;;;12.07;8.13;;;5.10;99.90;;;;;;5030863;28;20223;-69
2023/12/09 06:27:14;;;;;;;8.90;8.20;;;5.10;99.90;;;;;;5033828;28;20196;-69
2023/12/09 06:29:46;;;;;;;11.33;8.57;;;5.10;99.90;;;;;;5027792;28;20282;-68
2023/12/09 06:32:13;;;;;;;9.37;8.40;;;5.10;99.90;;;;;;5024655;28;20575;-67
2023/12/09 06:34:41;;;;;;;9.90;9.00;;;5.20;99.90;;;;;;5038796;28;20231;-68
2023/12/09 06:37:08;;;;;;;13.37;8.50;;;5.20;99.90;;;;;;5041756;28;20236;-68
2023/12/09 06:39:35;;;;;;;9.20;8.30;;;5.20;99.90;;;;;;5022911;28;20238;-68
2023/12/09 06:42:03;;;;;;;12.37;8.93;;;5.20;99.90;;;;;;5031228;28;20629;-69
2023/12/09 06:44:30;;;;;;;9.50;8.47;;;5.10;99.90;;;;;;5029964;28;20306;-69
2023/12/09 06:46:57;;;;;;;9.63;8.83;;;5.00;99.90;;;;;;5021808;28;20206;-69
2023/12/09 06:49:23;;;;;;;14.50;8.97;;;5.00;99.90;;;;;;5029625;28;20778;-69
2023/12/09 06:51:50;;;;;;;14.13;8.83;;;4.90;99.90;;;;;;5031008;28;20274;-68
2023/12/09 06:54:18;;;;;;;9.20;8.50;;;4.90;99.90;;;;;;5029537;28;20274;-67
2023/12/09 06:56:45;;;;;;;13.77;9.30;;;5.00;99.90;;;;;;5029415;28;20232;-67
2023/12/09 06:59:12;;;;;;;13.27;8.97;;;5.00;99.90;;;;;;5032989;28;20197;-67
2023/12/09 07:01:39;;;;;;;10.20;9.20;;;5.00;99.90;;;;;;5041506;28;20253;-67
2023/12/09 07:04:09;;;;;;;10.73;8.63;;;5.00;99.90;;;;;;5034623;28;20536;-67
2023/12/09 07:06:36;;;;;;;9.67;8.77;;;5.10;99.90;;;;;;5041653;28;20347;-67
2023/12/09 07:09:03;;;;;;;9.73;8.87;;;5.10;99.90;;;;;;5033322;28;20188;-67
2023/12/09 07:11:30;;;;;;;9.93;9.07;;;5.20;99.90;;;;;;5021752;28;20242;-67
2023/12/09 07:13:57;;;;;;;9.80;8.77;;;5.40;99.90;;;;;;5036833;28;20199;-67
2023/12/09 07:16:24;;;;;;;10.10;9.07;;;5.40;99.90;;;;;;5006868;28;20271;-67
2023/12/09 07:18:52;;;;;;;10.23;9.23;;;5.30;99.90;;;;;;5023448;28;20266;-66
2023/12/09 07:21:19;;;;;;;10.00;9.33;;;5.30;99.90;;;;;;5030045;28;20195;-67
2023/12/09 07:23:46;;;;;;;10.93;9.73;;;5.30;99.90;;;;;;5034886;28;20279;-68
2023/12/09 07:26:13;;;;;;;10.53;9.50;;;5.30;99.90;;;;;;5038657;28;20243;-68
2023/12/09 07:28:40;;;;;;;11.30;9.83;;;5.30;99.90;;;;;;5030876;28;20402;-68
2023/12/09 07:31:07;;;;;;;10.00;9.17;;;5.40;99.90;;;;;;5032598;28;20208;-67
2023/12/09 07:33:34;;;;;;;10.43;9.57;;;5.50;99.90;;;;;;5031257;28;20204;-66
2023/12/09 07:36:02;;;;;;;12.63;9.80;;;5.50;99.90;;;;;;5031576;28;20208;-67
2023/12/09 07:38:29;;;;;;;11.27;10.20;;;5.50;99.90;;;;;;5032152;28;20230;-68
2023/12/09 07:40:56;;;;;;;10.70;9.87;;;5.40;99.90;;;;;;5021501;28;20262;-66
2023/12/09 07:43:23;;;;;;;11.60;10.70;;;5.40;99.90;;;;;;5012493;28;20211;-66
2023/12/09 07:45:50;;;;;;;12.17;11.13;;;5.40;99.90;;;;;;5028735;28;20262;-66
2023/12/09 07:48:17;;;;;;;11.87;10.97;;;5.40;99.90;;;;;;5028411;28;20715;-67
2023/12/09 07:50:44;;;;;;;10.77;9.80;;;5.50;99.90;;;;;;5023764;28;20672;-66
2023/12/09 07:53:11;;;;;;;10.93;9.83;;;5.60;99.90;;;;;;5027492;28;20641;-65
2023/12/09 07:55:38;;;;;;;11.17;10.17;;;5.60;99.90;;;;;;5026932;28;20208;-66
2023/12/09 07:58:05;;;;;;;10.03;9.27;;;5.60;99.90;;;;;;5030340;28;20227;-66
2023/12/09 08:00:32;;;;;;;10.87;9.80;;;5.70;99.90;;;;;;5022958;28;20189;-68
2023/12/09 08:03:06;;;;;;;11.23;10.30;;;5.70;99.90;;;;;;5041744;28;20204;-67
2023/12/09 08:05:34;;;;;;;11.00;10.00;;;5.70;99.90;;;;;;5025331;28;20223;-66
2023/12/09 08:08:02;;;;;;;10.57;9.77;;;5.70;99.90;;;;;;5018707;28;20242;-66
2023/12/09 08:10:29;;;;;;;10.67;9.60;;;5.80;99.90;;;;;;5023597;28;20601;-66
2023/12/09 08:12:56;;;;;;;11.10;10.20;;;5.90;99.90;;;;;;5014841;28;20863;-67
2023/12/09 08:15:23;;;;;;;10.57;9.87;;;6.00;99.90;;;;;;5016584;28;20259;-66
2023/12/09 08:17:50;;;;;;;10.77;9.87;;;6.00;99.90;;;;;;5015002;28;21656;-66
2023/12/09 08:20:18;;;;;;;11.63;10.73;;;6.00;99.90;;;;;;5026902;28;20304;-66
2023/12/09 08:22:45;;;;;;;11.23;10.37;;;6.00;99.90;;;;;;5028531;28;20200;-66
2023/12/09 08:25:12;;;;;;;12.07;11.20;;;6.00;99.90;;;;;;5027672;28;20189;-66
2023/12/09 08:27:39;;;;;;;11.90;10.57;;;6.00;99.90;;;;;;5001112;28;20228;-66
2023/12/09 08:30:10;;;;;;;11.63;10.63;;;6.00;99.90;;;;;;5022711;28;20207;-66
2023/12/09 08:32:42;;;;;;;11.17;10.23;;;6.10;99.90;;;;;;5020010;28;20200;-66
2023/12/09 08:35:09;;;;;;;11.43;10.43;;;6.10;99.90;;;;;;5031713;28;20213;-66
2023/12/09 08:37:38;;;;;;;11.90;10.97;;;6.20;99.90;;;;;;5006975;28;20204;-66
2023/12/09 08:40:10;;;;;;;13.73;10.27;;;6.30;99.90;;;;;;5019647;28;20267;-66
2023/12/09 08:42:39;;;;;;;11.53;10.63;;;6.40;99.90;;;;;;5022192;28;20193;-66
2023/12/09 08:45:08;;;;;;;12.30;11.50;;;6.40;99.90;;;;;;5006122;28;20211;-65
2023/12/09 08:47:36;;;;;;;11.70;10.80;;;6.40;99.90;;;;;;5019640;28;20207;-66
2023/12/09 08:50:04;;;;;;;11.63;10.33;;;6.50;99.90;;;;;;5030422;28;20204;-66
2023/12/09 08:52:46;;;;;;;11.47;10.73;;;6.60;99.90;;;;;;5011243;28;20235;-66
2023/12/09 08:55:13;;;;;;;11.60;10.60;;;6.70;99.90;;;;;;5028988;28;20513;-66
2023/12/09 08:57:40;;;;;;;11.50;10.50;;;6.70;99.90;;;;;;5021691;28;20303;-66
2023/12/09 09:00:08;;;;;;;11.30;10.43;;;6.80;99.90;;;;;;5006583;28;20204;-66
2023/12/09 09:02:36;;;;;;;12.40;11.20;;;6.90;99.90;;;;;;5019773;28;20209;-66
2023/12/09 09:05:06;;;;;;;11.70;10.67;;;7.10;99.90;;;;;;5026424;28;20207;-67
2023/12/09 09:07:36;;;;;;;13.70;11.13;;;7.10;99.90;;;;;;5011855;28;20201;-67
2023/12/09 09:10:03;;;;;;;12.50;11.60;;;7.20;99.90;;;;;;5020915;28;20200;-67
2023/12/09 09:12:30;;;;;;;12.40;11.60;;;7.30;99.90;;;;;;5027782;28;20243;-66
2023/12/09 09:14:57;;;;;;;13.90;12.60;;;7.40;99.90;;;;;;5021318;28;20223;-66
2023/12/09 09:17:26;;;;;;;13.40;12.40;;;7.60;99.90;;;;;;5022134;28;20216;-63
2023/12/09 09:19:53;;;;;;;12.60;11.60;;;7.80;99.90;;;;;;5016226;28;20185;-63
2023/12/09 09:22:21;;;;;;;13.13;11.93;;;8.10;99.90;;;;;;5030082;28;20553;-63
2023/12/09 09:24:48;;;;;;;13.67;12.30;;;8.20;99.90;;;;;;5018782;28;20204;-64
2023/12/09 09:27:15;;;;;;;12.27;11.40;;;9.00;99.90;;;;;;5018076;28;20683;-63
2023/12/09 09:29:42;;;;;;;13.20;12.03;;;10.20;99.90;;;;;;5013204;28;20213;-64
2023/12/09 09:32:09;;;;;;;13.27;12.47;;;10.20;99.90;;;;;;5001755;28;20660;-63
2023/12/09 09:34:36;;;;;;;13.57;12.73;;;10.40;99.90;;;;;;5024321;28;20712;-64
2023/12/09 09:37:03;;;;;;;13.53;12.40;;;11.50;99.90;;;;;;4999162;28;20209;-64
2023/12/09 09:39:30;;;;;;;14.07;13.07;;;13.40;99.90;;;;;;5027394;28;20633;-68
2023/12/09 09:42:09;;;;;;;16.50;15.03;;;13.60;99.90;;;;;;5023902;28;20309;-64
2023/12/09 09:44:43;;;;;;;16.13;14.80;;;13.50;99.90;;;;;;5003565;28;20472;-64
2023/12/09 09:47:11;;;;;;;15.18;13.98;;;13.00;99.90;;;;;;5027751;28;20196;-67
2023/12/09 09:49:40;;;;;;;15.35;14.30;;;12.70;99.90;;;;;;5027094;28;20207;-68
2023/12/09 09:52:12;;;;;;;14.57;13.50;;;12.80;99.90;;;;;;5015461;28;20302;-68
2023/12/09 09:54:40;;;;;;;15.73;14.43;;;10.70;99.90;;;;;;5032297;28;20210;-68
2023/12/09 09:57:09;;;;;;;15.63;14.50;;;9.50;99.90;;;;;;5028905;28;20692;-67
2023/12/09 09:59:37;;;;;;;15.37;14.20;;;9.80;99.90;;;;;;5021269;28;20599;-68
2023/12/09 10:02:07;;;;;;;15.40;14.30;;;10.40;99.90;;;;;;5027322;28;21816;-68
2023/12/09 10:04:34;;;;;;;15.23;14.07;;;9.40;99.90;;;;;;5029219;28;20290;-67
2023/12/09 10:07:02;;;;;;;15.03;13.77;;;9.20;99.90;;;;;;5024293;28;20681;-68
2023/12/09 10:09:30;;;;;;;14.87;13.73;;;9.10;99.90;;;;;;5023442;28;20200;-68
2023/12/09 10:11:57;;;;;;;14.97;13.67;;;8.90;99.90;;;;;;5027554;28;20619;-68
2023/12/09 10:14:24;;;;;;;15.27;13.83;;;9.00;99.90;;;;;;5025060;28;20216;-67
2023/12/09 10:16:53;;;;;;;15.30;14.07;;;9.90;99.90;;;;;;5006693;28;20230;-67
2023/12/09 10:19:20;;;;;;;14.80;13.80;;;9.70;99.90;;;;;;5010700;28;20200;-67
2023/12/09 10:21:48;;;;;;;14.13;12.87;;;9.70;99.90;;;;;;5023586;28;20889;-67
2023/12/09 10:24:16;;;;;;;15.17;13.60;;;10.60;99.90;;;;;;5025370;28;20219;-68
2023/12/09 10:26:43;;;;;;;15.10;14.10;;;11.80;99.90;;;;;;5032899;28;20238;-64
2023/12/09 10:29:11;;;;;;;17.03;15.80;;;12.40;99.90;;;;;;5020876;28;20534;-65
2023/12/09 10:31:38;;;;;;;15.73;14.53;;;12.10;99.90;;;;;;5033566;28;20296;-65
2023/12/09 10:34:05;;;;;;;15.48;14.23;;;11.90;99.90;;;;;;5024987;28;20193;-66
2023/12/09 10:36:33;;;;;;;15.47;14.07;;;12.50;99.90;;;;;;5026373;28;20232;-64
2023/12/09 10:39:00;;;;;;;15.27;14.07;;;11.90;99.90;;;;;;5023627;28;20192;-66
2023/12/09 10:41:28;;;;;;;15.80;14.33;;;11.30;99.90;;;;;;5012858;28;20203;-66
2023/12/09 10:43:56;;;;;;;15.10;13.73;;;10.40;99.90;;;;;;5040056;28;20192;-64
2023/12/09 10:46:23;;;;;;;16.07;14.50;;;10.50;99.90;;;;;;5022202;28;20193;-65
2023/12/09 10:48:51;;;;;;;15.13;14.13;;;10.40;99.90;;;;;;5025321;28;20263;-65
2023/12/09 10:51:18;;;;;;;15.00;14.00;;;10.50;99.90;;;;;;5012524;28;20201;-63
2023/12/09 10:53:46;;;;;;;15.50;14.37;;;10.00;99.90;;;;;;5026904;28;20199;-65
2023/12/09 10:56:13;;;;;;;15.87;14.57;;;9.60;99.90;;;;;;5033034;28;20478;-66
2023/12/09 10:58:41;;;;;;;16.10;14.63;;;9.40;99.90;;;;;;5020744;28;20323;-69
2023/12/09 11:01:08;;;;;;;15.33;14.13;;;9.40;99.90;;;;;;5015315;28;20678;-68
2023/12/09 11:03:37;;;;;;;14.70;13.50;;;9.30;99.90;;;;;;5018217;28;20192;-69
2023/12/09 11:06:08;;;;;;;17.67;13.63;;;9.20;99.90;;;;;;5024296;28;20192;-70
2023/12/09 11:08:37;;;;;;;15.33;13.97;;;9.20;99.90;;;;;;5021117;28;20230;-69
2023/12/09 11:11:07;;;;;;;15.30;14.20;;;9.10;99.90;;;;;;4990773;28;1132125;-69
2023/12/09 11:13:36;;;;;;;14.90;13.60;;;9.10;99.90;;;;;;5021161;28;20192;-68
2023/12/09 11:16:16;;;;;;;14.60;13.60;;;9.10;99.90;;;;;;5021619;28;20928;-68
2023/12/09 11:18:53;;;;;;;14.73;13.57;;;9.00;99.90;;;;;;5022264;28;20228;-68
2023/12/09 11:21:23;;;;;;;14.93;13.33;;;8.90;99.90;;;;;;5023119;28;20219;-68
2023/12/09 11:23:51;;;;;;;15.53;14.13;;;8.90;99.90;;;;;;5023052;28;20203;-67
2023/12/09 11:26:26;;;;;;;14.30;13.07;;;8.90;99.90;;;;;;5022687;28;20557;-69
2023/12/09 11:29:14;;;;;;;14.47;13.50;;;8.80;99.90;;;;;;5025304;28;20188;-68
2023/12/09 11:31:44;;;;;;;15.67;14.20;;;8.80;99.90;;;;;;5025861;28;20196;-70
2023/12/09 11:34:15;;;;;;;14.83;13.87;;;8.80;99.90;;;;;;5016300;28;20689;-69
2023/12/09 11:36:44;;;;;;;15.03;14.13;;;8.70;99.90;;;;;;5024271;28;20292;-64
2023/12/09 11:39:19;;;;;;;15.07;14.03;;;8.70;99.90;;;;;;5016788;28;20839;-63
2023/12/09 11:41:49;;;;;;;19.03;17.23;;;8.80;99.90;;;;;;5023325;28;20219;-64
2023/12/09 11:44:16;;;;;;;15.00;13.90;;;8.70;99.90;;;;;;5024474;28;20352;-62
2023/12/09 11:46:45;;;;;;;14.57;13.47;;;8.90;99.90;;;;;;5025293;28;20203;-63
2023/12/09 11:49:13;;;;;;;14.73;13.60;;;8.90;99.90;;;;;;5020573;28;20199;-65
2023/12/09 11:51:40;;;;;;;15.73;14.43;;;8.90;99.90;;;;;;5025426;28;20188;-66
2023/12/09 11:54:09;;;;;;;18.47;14.27;;;8.90;99.90;;;;;;5021418;28;20259;-65
2023/12/09 11:56:38;;;;;;;14.23;13.07;;;8.90;99.90;;;;;;5022973;28;20288;-64
2023/12/09 11:59:05;;;;;;;14.63;13.23;;;8.90;99.90;;;;;;5017369;28;20196;-63
2023/12/09 12:01:35;;;;;;;15.47;14.10;;;8.90;99.90;;;;;;5022681;28;20195;-64
2023/12/09 12:04:02;;;;;;;15.57;13.97;;;8.90;99.90;;;;;;5031572;28;20227;-65
2023/12/09 12:06:31;;;;;;;15.97;14.40;;;8.90;99.90;;;;;;5025819;28;20247;-69
2023/12/09 12:08:58;;;;;;;16.17;14.10;;;9.00;99.90;;;;;;5024959;28;20204;-64
2023/12/09 12:11:25;;;;;;;15.83;14.53;;;9.00;99.90;;;;;;5020293;28;20319;-65
2023/12/09 12:13:53;;;;;;;16.33;14.87;;;9.10;99.90;;;;;;5025812;28;20200;-64
2023/12/09 12:16:21;;;;;;;15.47;13.97;;;9.30;99.90;;;;;;5022773;28;20741;-65
2023/12/09 12:18:48;;;;;;;14.70;13.80;;;9.40;99.90;;;;;;5028526;28;20216;-65
2023/12/09 12:21:16;;;;;;;14.60;13.37;;;9.60;99.90;;;;;;5020929;28;20197;-64
2023/12/09 12:23:43;;;;;;;15.10;13.93;;;9.70;99.90;;;;;;5023007;28;20212;-64
2023/12/09 12:26:12;;;;;;;15.23;14.10;;;9.50;99.90;;;;;;5026312;28;20250;-66
2023/12/09 12:28:40;;;;;;;16.23;13.90;;;9.50;99.90;;;;;;5026196;28;20242;-66
2023/12/09 12:31:10;;;;;;;15.00;13.90;;;9.40;99.90;;;;;;5022404;28;20598;-64
2023/12/09 12:33:39;;;;;;;14.97;13.97;;;9.30;99.90;;;;;;5016121;28;20206;-65
2023/12/09 12:36:08;;;;;;;15.50;13.87;;;9.20;99.90;;;;;;5024410;28;20200;-65
2023/12/09 12:38:35;;;;;;;15.27;14.20;;;9.20;99.90;;;;;;5026509;28;20290;-64
2023/12/09 12:41:03;;;;;;;15.27;14.17;;;9.20;99.90;;;;;;5025956;28;20557;-65
2023/12/09 12:43:31;;;;;;;15.20;14.07;;;9.10;99.90;;;;;;5020003;28;20193;-61
2023/12/09 12:45:59;;;;;;;14.27;13.33;;;9.10;99.90;;;;;;5021082;28;20733;-64